KCQT

Los Angeles / USC Campus Downtown Airport

Los Angeles, California, USA
METAR KCQT 211547Z AUTO VRB06KT 10SM CLR 12/00 A3008 RMK AO2 SLP187 T01220000
Observed Flight Rules
Jan-21 @ 15:47 UTC (47 minutes ago) Visual Flight Rules
Wind Visibility Clouds
Variable at 6 knots 10 miles
  • Clear skies
Temperatures Readings
Current 12°C / 54°F
Dewpoint 0°C / 32°F
Humidity 44%
Altimeter 30.08" Hg
Pressure 1018.7 hPa
Elevation 56
METAR KCQT 211547Z AUTO VRB06KT 10SM CLR 12/00 A3008 RMK AO2 SLP187 T01220000
Observed Flight Rules
Jan-21 @ 15:47 UTC
(47 minutes ago)
VFR
Wind Visibility
Variable at 6 knots 10 miles
Clouds
  • Clear skies
Temperature Dewpoint
12°C / 54°F 0°C / 32°F
Humidity Altimeter Pressure
44% 30.08" Hg 1018.7 hPa